createdAt,value
2018-09-21T00:00:10.488Z,1005.10
2018-09-21T00:01:10.524Z,1005.08
2018-09-21T00:02:10.505Z,1005.06
2018-09-21T00:03:10.540Z,1005.05
2018-09-21T00:04:10.576Z,1005.09
2018-09-21T00:05:10.615Z,1005.07
2018-09-21T00:06:10.697Z,1005.07
2018-09-21T00:07:10.682Z,1005.05
2018-09-21T00:08:10.763Z,1005.09
2018-09-21T00:09:10.750Z,1005.04
2018-09-21T00:10:10.936Z,1005.02
2018-09-21T00:11:11.121Z,1005.06
2018-09-21T00:12:10.915Z,1005.00
2018-09-21T00:13:10.891Z,1005.00
2018-09-21T00:14:10.970Z,1004.94
2018-09-21T00:15:11.006Z,1004.94
2018-09-21T00:16:11.046Z,1004.90
2018-09-21T00:17:11.023Z,1004.92
2018-09-21T00:18:11.369Z,1004.93
2018-09-21T00:19:11.154Z,1004.96
2018-09-21T00:20:11.180Z,1004.91
2018-09-21T00:21:11.162Z,1004.89
2018-09-21T00:22:11.249Z,1004.86
2018-09-21T00:23:11.226Z,1004.88
2018-09-21T00:24:11.267Z,1004.90
2018-09-21T00:25:11.603Z,1004.86
2018-09-21T00:26:11.386Z,1004.87
2018-09-21T00:27:11.382Z,1004.84
2018-09-21T00:28:11.456Z,1004.83
2018-09-21T00:29:11.439Z,1004.80
2018-09-21T00:30:11.522Z,1004.82
2018-09-21T00:31:11.507Z,1004.85
2018-09-21T00:32:11.540Z,1004.80
2018-09-21T00:33:11.580Z,1004.82
2018-09-21T00:35:11.697Z,1004.83
2018-09-21T00:36:11.735Z,1004.83
2018-09-21T00:37:11.711Z,1004.83
2018-09-21T00:38:12.049Z,1004.81
2018-09-21T00:39:11.778Z,1004.83
2018-09-21T00:40:11.869Z,1004.83
2018-09-21T00:41:11.904Z,1004.76
2018-09-21T00:42:11.882Z,1004.74
2018-09-21T00:43:11.921Z,1004.75
2018-09-21T00:44:12.256Z,1004.71
2018-09-21T00:45:11.988Z,1004.76
2018-09-21T00:46:12.075Z,1004.72
2018-09-21T00:47:12.058Z,1004.69
2018-09-21T00:48:12.144Z,1004.70
2018-09-21T00:49:12.127Z,1004.69
2018-09-21T00:50:12.507Z,1004.68
2018-09-21T00:51:12.201Z,1004.66
2018-09-21T00:52:12.284Z,1004.68
2018-09-21T00:53:12.263Z,1004.62
2018-09-21T00:54:12.297Z,1004.63
2018-09-21T00:55:12.382Z,1004.61
2018-09-21T00:56:12.719Z,1004.60
2018-09-21T00:57:12.451Z,1004.56
2018-09-21T00:58:12.483Z,1004.54
2018-09-21T00:59:12.470Z,1004.52
2018-09-21T01:00:12.502Z,1004.50
2018-09-21T01:01:12.542Z,1004.53
2018-09-21T01:02:12.573Z,1004.52
2018-09-21T01:03:12.907Z,1004.48
2018-09-21T01:04:12.692Z,1004.40
2018-09-21T01:05:12.723Z,1004.42
2018-09-21T01:06:12.707Z,1004.38
2018-09-21T01:07:12.744Z,1004.34
2018-09-21T01:08:12.825Z,1004.35
2018-09-21T01:09:12.860Z,1004.35
2018-09-21T01:10:13.145Z,1004.31
2018-09-21T01:11:12.880Z,1004.30
2018-09-21T01:12:12.966Z,1004.32
2018-09-21T01:13:13.005Z,1004.30
2018-09-21T01:14:13.036Z,1004.31
2018-09-21T01:15:13.078Z,1004.29
2018-09-21T01:16:13.053Z,1004.26
2018-09-21T01:17:13.385Z,1004.27
2018-09-21T01:18:13.166Z,1004.19
2018-09-21T01:19:13.159Z,1004.17
2018-09-21T01:20:13.243Z,1004.17
2018-09-21T01:21:13.226Z,1004.23
2018-09-21T01:22:13.310Z,1004.19
2018-09-21T01:23:13.292Z,1004.19
2018-09-21T01:24:13.634Z,1004.15
2018-09-21T01:25:13.356Z,1004.14
2018-09-21T01:26:13.395Z,1004.05
2018-09-21T01:27:13.478Z,1004.10
2018-09-21T01:29:13.560Z,1004.11
2018-09-21T01:30:13.534Z,1004.04
2018-09-21T01:31:13.872Z,1003.99
2018-09-21T01:32:13.653Z,1003.94
2018-09-21T01:33:13.638Z,1003.96
2018-09-21T01:34:13.725Z,1003.96
2018-09-21T01:35:13.752Z,1003.91
2018-09-21T01:36:13.787Z,1003.91
2018-09-21T01:37:13.855Z,1003.92
2018-09-21T01:38:13.860Z,1003.88
2018-09-21T01:39:13.842Z,1003.89
2018-09-21T01:40:13.929Z,1003.84
2018-09-21T01:41:13.966Z,1003.79
2018-09-21T01:42:13.953Z,1003.83
2018-09-21T01:43:14.032Z,1003.79
2018-09-21T01:44:14.312Z,1003.80
2018-09-21T01:45:14.100Z,1003.81
2018-09-21T01:46:14.085Z,1003.81
2018-09-21T01:47:14.170Z,1003.81
2018-09-21T01:48:14.205Z,1003.78
2018-09-21T01:49:14.211Z,1003.72
2018-09-21T01:50:14.519Z,1003.76
2018-09-21T01:51:14.251Z,1003.74
2018-09-21T01:52:14.333Z,1003.72
2018-09-21T01:53:14.326Z,1003.70
2018-09-21T01:54:14.409Z,1003.71
2018-09-21T01:55:14.388Z,1003.64
2018-09-21T01:56:14.778Z,1003.67
2018-09-21T01:57:14.563Z,1003.67
2018-09-21T01:58:14.491Z,1003.67
2018-09-21T01:59:14.524Z,1003.66
2018-09-21T02:00:14.558Z,1003.64
2018-09-21T02:01:14.594Z,1003.62
2018-09-21T02:02:14.933Z,1003.62
2018-09-21T02:03:14.716Z,1003.58
2018-09-21T02:04:14.746Z,1003.57
2018-09-21T02:05:14.786Z,1003.61
2018-09-21T02:06:14.823Z,1003.57
2018-09-21T02:07:14.810Z,1003.50
2018-09-21T02:08:14.883Z,1003.50
2018-09-21T02:09:15.173Z,1003.46
2018-09-21T02:10:14.902Z,1003.44
2018-09-21T02:12:14.976Z,1003.46
2018-09-21T02:13:15.006Z,1003.44
2018-09-21T02:14:15.097Z,1003.45
2018-09-21T02:15:15.074Z,1003.41
2018-09-21T02:17:15.450Z,1003.37
2018-09-21T02:19:15.265Z,1003.31
2018-09-21T02:20:15.301Z,1003.29
2018-09-21T02:21:15.284Z,1003.28
2018-09-21T02:22:15.315Z,1003.26
2018-09-21T02:23:15.404Z,1003.18
2018-09-21T02:24:15.682Z,1003.15
2018-09-21T02:25:15.414Z,1003.16
2018-09-21T02:26:15.499Z,1003.17
2018-09-21T02:27:15.534Z,1003.18
2018-09-21T02:28:15.569Z,1003.12
2018-09-21T02:29:15.605Z,1003.11
2018-09-21T02:30:15.591Z,1003.10
2018-09-21T02:32:15.955Z,1003.07
2018-09-21T02:33:15.743Z,1003.02
2018-09-21T02:34:15.773Z,1002.98
2018-09-21T02:35:15.760Z,1002.95
2018-09-21T02:36:15.852Z,1002.94
2018-09-21T02:37:15.827Z,1002.92
2018-09-21T02:38:16.212Z,1002.90
2018-09-21T02:40:15.983Z,1002.87
2018-09-21T02:41:16.069Z,1002.90
2018-09-21T02:42:16.051Z,1002.85
2018-09-21T02:43:16.032Z,1002.85
2018-09-21T02:44:16.115Z,1002.85
2018-09-21T02:45:16.410Z,1002.75
2018-09-21T02:46:16.185Z,1002.72
2018-09-21T02:47:16.219Z,1002.76
2018-09-21T02:49:16.248Z,1002.75
2018-09-21T02:50:16.278Z,1002.73
2018-09-21T02:51:16.306Z,1002.68
2018-09-21T02:52:16.692Z,1002.66
2018-09-21T02:53:16.480Z,1002.65
2018-09-21T02:54:16.430Z,1002.62
2018-09-21T02:55:16.448Z,1002.63
2018-09-21T02:56:16.529Z,1002.60
2018-09-21T02:57:16.517Z,1002.64
2018-09-21T02:58:16.605Z,1002.58
2018-09-21T02:59:16.883Z,1002.55
2018-09-21T03:00:16.730Z,1002.56
2018-09-21T03:01:16.648Z,1002.54
2018-09-21T03:02:16.743Z,1002.52
2018-09-21T03:03:16.725Z,1002.51
2018-09-21T03:04:16.803Z,1002.46
2018-09-21T03:05:16.795Z,1002.44
2018-09-21T03:06:17.121Z,1002.40
2018-09-21T03:07:16.911Z,1002.32
2018-09-21T03:10:17.008Z,1002.22
2018-09-21T03:11:17.046Z,1002.24
2018-09-21T03:12:17.087Z,1002.24
2018-09-21T03:13:17.455Z,1002.17
2018-09-21T03:14:17.149Z,1002.18
2018-09-21T03:15:17.183Z,1002.17
2018-09-21T03:16:17.221Z,1002.06
2018-09-21T03:17:17.196Z,1002.04
2018-09-21T03:18:17.231Z,1001.96
2018-09-21T03:19:17.268Z,1001.96
2018-09-21T03:20:17.604Z,1001.92
2018-09-21T03:21:17.386Z,1001.88
2018-09-21T03:22:17.424Z,1001.83
2018-09-21T03:23:17.454Z,1001.86
2018-09-21T03:24:17.490Z,1001.82
2018-09-21T03:25:17.524Z,1001.79
2018-09-21T03:26:17.507Z,1001.75
2018-09-21T03:27:17.844Z,1001.74
2018-09-21T03:28:17.623Z,1001.73
2018-09-21T03:29:17.660Z,1001.69
2018-09-21T03:30:17.644Z,1001.64
2018-09-21T03:31:17.676Z,1001.60
2018-09-21T03:32:17.763Z,1001.59
2018-09-21T03:33:17.796Z,1001.58
2018-09-21T03:34:18.138Z,1001.52
2018-09-21T03:35:17.997Z,1001.57
2018-09-21T03:36:17.904Z,1001.52
2018-09-21T03:37:17.891Z,1001.51
2018-09-21T03:39:17.951Z,1001.52
2018-09-21T03:43:18.139Z,1001.37
2018-09-21T03:44:18.423Z,1001.28
2018-09-21T03:45:18.249Z,1001.36
2018-09-21T03:46:18.239Z,1001.34
2018-09-21T03:47:18.274Z,1001.32
2018-09-21T03:48:18.315Z,1001.32
2018-09-21T03:49:18.346Z,1001.32
2018-09-21T03:50:18.336Z,1001.29
2018-09-21T03:51:18.719Z,1001.31
2018-09-21T03:52:18.451Z,1001.31
2018-09-21T03:53:18.481Z,1001.28
2018-09-21T03:54:18.462Z,1001.22
2018-09-21T03:55:18.496Z,1001.26
2018-09-21T03:56:18.590Z,1001.25
2018-09-21T03:57:18.612Z,1001.26
2018-09-21T03:58:18.925Z,1001.34
2018-09-21T03:59:18.690Z,1001.25
2018-09-21T04:00:18.718Z,1001.24
2018-09-21T04:01:18.758Z,1001.29
2018-09-21T04:02:18.736Z,1001.28
2018-09-21T04:03:18.774Z,1001.26
2018-09-21T04:04:18.858Z,1001.28
2018-09-21T04:05:19.139Z,1001.27
2018-09-21T04:06:18.874Z,1001.29
2018-09-21T04:07:18.911Z,1001.24
2018-09-21T04:08:18.990Z,1001.23
2018-09-21T04:09:19.025Z,1001.22
2018-09-21T04:10:19.016Z,1001.19
2018-09-21T04:11:19.043Z,1001.19
2018-09-21T04:12:19.378Z,1001.17
2018-09-21T04:13:19.161Z,1001.18
2018-09-21T04:14:19.195Z,1001.16
2018-09-21T04:15:19.237Z,1001.18
2018-09-21T04:16:19.218Z,1001.15
2018-09-21T04:17:19.301Z,1001.16
2018-09-21T04:18:19.291Z,1001.13
2018-09-21T04:19:19.620Z,1001.15
2018-09-21T04:20:19.350Z,1001.09
2018-09-21T04:21:19.384Z,1001.08
2018-09-21T04:23:19.519Z,1001.06
2018-09-21T04:24:19.538Z,1001.04
2018-09-21T04:25:19.576Z,1001.08
2018-09-21T04:26:19.561Z,1001.07
2018-09-21T04:27:19.595Z,1001.10
2018-09-21T04:28:19.684Z,1001.07
2018-09-21T04:29:19.707Z,1001.06
2018-09-21T04:30:19.761Z,1001.05
2018-09-21T04:31:19.728Z,1001.13
2018-09-21T04:32:20.118Z,1001.14
2018-09-21T04:33:19.802Z,1001.09
2018-09-21T04:34:19.830Z,1001.09
2018-09-21T04:35:19.914Z,1001.05
2018-09-21T04:36:19.958Z,1001.03
2018-09-21T04:37:19.988Z,1001.00
2018-09-21T04:38:19.974Z,1001.04
2018-09-21T04:39:20.304Z,1001.02
2018-09-21T04:40:20.094Z,1001.00
2018-09-21T04:41:20.183Z,1000.98
2018-09-21T04:42:20.104Z,1001.00
2018-09-21T04:43:20.144Z,1000.97
2018-09-21T04:44:20.227Z,1000.96
2018-09-21T04:45:20.509Z,1000.96
2018-09-21T04:46:20.450Z,1001.01
2018-09-21T04:47:20.286Z,1000.99
2018-09-21T04:48:20.362Z,1000.97
2018-09-21T04:49:20.350Z,1000.97
2018-09-21T04:50:20.382Z,1000.95
2018-09-21T04:51:20.715Z,1000.96
2018-09-21T04:52:20.507Z,1000.96
2018-09-21T04:53:20.479Z,1000.95
2018-09-21T04:54:20.566Z,1000.88
2018-09-21T04:55:20.552Z,1000.92
2018-09-21T04:56:20.589Z,1000.85
2018-09-21T04:57:20.918Z,1000.84
2018-09-21T04:58:20.660Z,1000.85
2018-09-21T04:59:20.691Z,1000.80
2018-09-21T05:00:20.777Z,1000.80
2018-09-21T05:01:20.808Z,1000.82
2018-09-21T05:02:20.843Z,1000.76
2018-09-21T05:03:20.828Z,1000.77
2018-09-21T05:04:21.163Z,1000.79
2018-09-21T05:05:20.890Z,1000.81
2018-09-21T05:06:20.934Z,1000.82
2018-09-21T05:07:21.013Z,1000.83
2018-09-21T05:08:21.044Z,1000.85
2018-09-21T05:09:21.037Z,1000.85
2018-09-21T05:10:21.068Z,1000.84
2018-09-21T05:11:21.405Z,1000.77
2018-09-21T05:12:21.183Z,1000.74
2018-09-21T05:13:21.220Z,1000.76
2018-09-21T05:14:21.200Z,1000.79
2018-09-21T05:15:21.239Z,1000.76
2018-09-21T05:16:21.267Z,1000.75
2018-09-21T05:17:21.307Z,1000.77
2018-09-21T05:18:21.640Z,1000.73
2018-09-21T05:19:21.423Z,1000.75
2018-09-21T05:20:21.457Z,1000.72
2018-09-21T05:21:21.490Z,1000.65
2018-09-21T05:22:21.474Z,1000.62
2018-09-21T05:23:21.563Z,1000.59
2018-09-21T05:24:21.600Z,1000.58
2018-09-21T05:26:21.917Z,1000.56
2018-09-21T05:27:21.651Z,1000.53
2018-09-21T05:28:21.736Z,1000.55
2018-09-21T05:29:21.763Z,1000.62
2018-09-21T05:30:21.753Z,1000.66
2018-09-21T05:31:21.787Z,1000.66
2018-09-21T05:32:21.875Z,1000.64
2018-09-21T05:33:21.861Z,1000.69
2018-09-21T05:34:21.979Z,1000.65
2018-09-21T05:35:21.973Z,1000.65
2018-09-21T05:36:21.961Z,1000.66
2018-09-21T05:37:21.991Z,1000.64
2018-09-21T05:38:22.029Z,1000.62
2018-09-21T05:39:22.357Z,1000.64
2018-09-21T05:40:22.147Z,1000.65
2018-09-21T05:41:22.179Z,1000.66
2018-09-21T05:42:22.221Z,1000.71
2018-09-21T05:43:22.280Z,1000.71
2018-09-21T05:44:22.288Z,1000.62
2018-09-21T05:45:22.263Z,1000.59
2018-09-21T05:46:22.598Z,1000.69
2018-09-21T05:47:22.396Z,1000.66
2018-09-21T05:48:22.422Z,1000.70
2018-09-21T05:49:22.418Z,1000.63
2018-09-21T05:50:22.433Z,1000.75
2018-09-21T05:51:22.524Z,1000.67
2018-09-21T05:52:22.508Z,1000.69
2018-09-21T05:53:22.843Z,1000.65
2018-09-21T05:54:22.573Z,1000.68
2018-09-21T05:55:22.660Z,1000.69
2018-09-21T05:56:22.693Z,1000.67
2018-09-21T05:57:22.682Z,1000.66
2018-09-21T05:58:22.707Z,1000.64
2018-09-21T05:59:22.742Z,1000.59
2018-09-21T06:00:23.091Z,1000.64
2018-09-21T06:01:22.866Z,1000.65
2018-09-21T06:02:22.865Z,1000.68
2018-09-21T06:03:22.881Z,1000.63
2018-09-21T06:04:22.968Z,1000.62
2018-09-21T06:05:22.999Z,1000.68
2018-09-21T06:06:23.032Z,1000.60
2018-09-21T06:07:23.072Z,1000.69
2018-09-21T06:08:23.109Z,1000.67
2018-09-21T06:09:23.089Z,1000.68
2018-09-21T06:10:23.189Z,1000.66
2018-09-21T06:11:23.215Z,1000.68
2018-09-21T06:12:23.196Z,1000.60
2018-09-21T06:13:23.223Z,1000.50
2018-09-21T06:14:23.263Z,1000.53
2018-09-21T06:15:23.295Z,1000.56
2018-09-21T06:16:23.377Z,1000.51
2018-09-21T06:17:23.415Z,1000.54
2018-09-21T06:18:23.458Z,1000.59
2018-09-21T06:19:23.523Z,1000.62
2018-09-21T06:20:23.519Z,1000.61
2018-09-21T06:21:23.499Z,1000.66
2018-09-21T06:22:23.587Z,1000.69
2018-09-21T06:23:23.619Z,1000.75
2018-09-21T06:24:23.668Z,1000.75
2018-09-21T06:25:23.695Z,1000.75
2018-09-21T06:26:23.728Z,1000.77
2018-09-21T06:27:23.709Z,1000.74
2018-09-21T06:28:23.738Z,1000.83
2018-09-21T06:29:23.828Z,1000.76
2018-09-21T06:30:23.806Z,1000.75
2018-09-21T06:31:23.908Z,1000.78
2018-09-21T06:32:23.930Z,1000.81
2018-09-21T06:33:23.960Z,1000.87
2018-09-21T06:34:23.950Z,1000.78
2018-09-21T06:35:23.987Z,1000.77
2018-09-21T06:36:24.065Z,1000.87
2018-09-21T06:37:24.356Z,1000.75
2018-09-21T06:38:24.136Z,1000.65
2018-09-21T06:39:24.171Z,1000.49
2018-09-21T06:40:24.152Z,1000.45
2018-09-21T06:41:24.238Z,1000.45
2018-09-21T06:42:24.310Z,1000.44
2018-09-21T06:43:24.303Z,1000.38
2018-09-21T06:44:24.382Z,1000.34
2018-09-21T06:45:24.333Z,1000.33
2018-09-21T06:46:24.359Z,1000.39
2018-09-21T06:47:24.483Z,1000.41
2018-09-21T06:48:24.474Z,1000.41
2018-09-21T06:49:24.517Z,1000.48
2018-09-21T06:50:24.500Z,1000.56
2018-09-21T06:51:24.539Z,1000.68
2018-09-21T06:52:24.614Z,1000.76
2018-09-21T06:53:24.649Z,1000.79
2018-09-21T06:54:26.448Z,1000.70
2018-09-21T06:55:24.719Z,1000.65
2018-09-21T06:56:25.015Z,1000.81
2018-09-21T06:57:24.789Z,1000.79
2018-09-21T06:58:24.820Z,1000.90
2018-09-21T06:59:24.810Z,1000.95
2018-09-21T07:00:24.890Z,1000.94
2018-09-21T07:01:24.906Z,1000.90
2018-09-21T07:02:24.908Z,1000.97
2018-09-21T07:03:24.993Z,1000.91
2018-09-21T07:04:25.023Z,1000.85
2018-09-21T07:05:25.009Z,1000.80
2018-09-21T07:07:25.128Z,1000.86
2018-09-21T07:08:25.119Z,1000.85
2018-09-21T07:09:25.196Z,1000.84
2018-09-21T07:10:25.189Z,1000.82
2018-09-21T07:11:25.215Z,1000.82
2018-09-21T07:12:25.304Z,1000.88
2018-09-21T07:13:25.282Z,1000.95
2018-09-21T07:14:25.483Z,1000.88
2018-09-21T07:15:25.358Z,1000.99
2018-09-21T07:16:25.557Z,1001.00
2018-09-21T07:17:25.418Z,1000.98
2018-09-21T07:18:25.503Z,1000.92
2018-09-21T07:19:25.504Z,1000.90
2018-09-21T07:20:25.574Z,1000.87
2018-09-21T07:21:25.565Z,1000.84
2018-09-21T07:22:25.608Z,1000.84
2018-09-21T07:23:25.690Z,1000.78
2018-09-21T07:24:25.711Z,1000.72
2018-09-21T07:25:25.709Z,1000.80
2018-09-21T07:26:25.783Z,1000.75
2018-09-21T07:27:25.765Z,1000.87
2018-09-21T07:28:25.867Z,1000.83
2018-09-21T07:29:25.881Z,1000.80
2018-09-21T07:30:25.871Z,1000.76
2018-09-21T07:31:25.960Z,1000.75
2018-09-21T07:32:25.988Z,1000.72
2018-09-21T07:33:25.975Z,1000.74
2018-09-21T07:34:26.069Z,1000.70
2018-09-21T07:35:26.097Z,1000.57
2018-09-21T07:36:26.119Z,1000.61
2018-09-21T07:37:26.150Z,1000.65
2018-09-21T07:38:26.438Z,1000.67
2018-09-21T07:39:26.241Z,1000.63
2018-09-21T07:40:26.361Z,1000.65
2018-09-21T07:41:26.314Z,1000.58
2018-09-21T07:42:26.333Z,1000.56
2018-09-21T07:44:26.352Z,1000.67
2018-09-21T07:45:26.736Z,1000.51
2018-09-21T07:46:26.424Z,1000.39
2018-09-21T07:47:26.456Z,1000.42
2018-09-21T07:48:26.535Z,1000.38
2018-09-21T07:49:26.896Z,1000.35
2018-09-21T07:50:27.098Z,1000.33
2018-09-21T07:51:27.180Z,1000.39
2018-09-21T07:52:26.978Z,1000.49
2018-09-21T07:53:26.834Z,1000.35
2018-09-21T07:54:26.701Z,1000.41
2018-09-21T07:55:26.778Z,1000.39
2018-09-21T07:56:26.760Z,1000.41
2018-09-21T07:57:26.792Z,1000.40
2018-09-21T07:58:27.124Z,1000.35
2018-09-21T07:59:26.911Z,1000.38
2018-09-21T08:00:26.942Z,1000.42
2018-09-21T08:01:26.924Z,1000.47
2018-09-21T08:02:26.966Z,1000.49
2018-09-21T08:03:26.997Z,1000.52
2018-09-21T08:04:27.084Z,1000.53
2018-09-21T08:05:27.114Z,1000.57
2018-09-21T08:06:27.237Z,1000.59
2018-09-21T08:07:27.191Z,1000.71
2018-09-21T08:08:27.215Z,1000.78
2018-09-21T08:09:27.248Z,1000.74
2018-09-21T08:10:27.288Z,1000.79
2018-09-21T08:11:27.567Z,1000.76
2018-09-21T08:12:27.301Z,1000.70
2018-09-21T08:13:27.337Z,1000.71
2018-09-21T08:14:27.373Z,1000.65
2018-09-21T08:15:27.454Z,1000.58
2018-09-21T08:16:27.491Z,1000.57
2018-09-21T08:17:27.479Z,1000.61
2018-09-21T08:19:27.712Z,1000.50
2018-09-21T08:20:27.574Z,1000.61
2018-09-21T08:21:27.616Z,1000.60
2018-09-21T08:22:27.646Z,1000.66
2018-09-21T08:24:27.766Z,1000.68
2018-09-21T08:25:28.059Z,1000.68
2018-09-21T08:26:27.807Z,1000.64
2018-09-21T08:27:27.814Z,1000.58
2018-09-21T08:28:27.898Z,1000.57
2018-09-21T08:29:27.937Z,1000.66
2018-09-21T08:31:28.353Z,1000.65
2018-09-21T08:32:28.043Z,1000.68
2018-09-21T08:33:28.085Z,1000.71
2018-09-21T08:34:28.055Z,1000.98
2018-09-21T08:35:28.151Z,1001.04
2018-09-21T08:36:28.147Z,1001.14
2018-09-21T08:37:28.212Z,1001.11
2018-09-21T08:38:28.511Z,1001.04
2018-09-21T08:39:28.284Z,1001.18
2018-09-21T08:40:28.310Z,1001.25
2018-09-21T08:42:28.379Z,1001.37
2018-09-21T08:43:28.366Z,1001.44
2018-09-21T08:44:28.457Z,1001.40
2018-09-21T08:45:28.552Z,1001.39
2018-09-21T08:46:28.518Z,1001.47
2018-09-21T08:47:28.499Z,1001.41
2018-09-21T08:48:28.590Z,1001.61
2018-09-21T08:49:28.572Z,1001.76
2018-09-21T08:50:28.673Z,1001.93
2018-09-21T08:51:28.686Z,1002.24
2018-09-21T08:52:28.676Z,1002.48
2018-09-21T08:53:29.283Z,1002.41
2018-09-21T08:54:29.241Z,1002.50
2018-09-21T08:55:29.168Z,1002.59
2018-09-21T08:56:29.826Z,1002.68
2018-09-21T08:57:29.429Z,1002.71
2018-09-21T08:58:29.338Z,1002.82
2018-09-21T08:59:28.968Z,1002.91
2018-09-21T09:00:29.003Z,1002.88
2018-09-21T09:01:29.027Z,1002.91
2018-09-21T09:02:29.064Z,1003.02
2018-09-21T09:03:29.452Z,1003.06
2018-09-21T09:04:29.131Z,1003.14
2018-09-21T09:05:29.169Z,1003.18
2018-09-21T09:06:29.152Z,1003.30
2018-09-21T09:07:29.230Z,1003.30
2018-09-21T09:08:29.218Z,1003.23
2018-09-21T09:09:29.305Z,1003.34
2018-09-21T09:10:29.588Z,1003.41
2018-09-21T09:11:29.324Z,1003.43
2018-09-21T09:12:29.413Z,1003.53
2018-09-21T09:13:29.441Z,1003.57
2018-09-21T09:14:29.432Z,1003.64
2018-09-21T09:15:29.467Z,1003.64
2018-09-21T09:16:29.543Z,1003.73
2018-09-21T09:17:29.829Z,1003.75
2018-09-21T09:18:29.710Z,1003.77
2018-09-21T09:19:29.686Z,1003.77
2018-09-21T09:20:29.684Z,1003.75
2018-09-21T09:21:29.670Z,1003.77
2018-09-21T09:22:29.690Z,1003.79
2018-09-21T09:23:29.775Z,1003.73
2018-09-21T09:24:30.073Z,1003.75
2018-09-21T09:25:29.860Z,1003.82
2018-09-21T09:26:29.827Z,1003.84
2018-09-21T09:27:29.868Z,1003.91
2018-09-21T09:28:29.953Z,1003.93
2018-09-21T09:29:29.989Z,1003.89
2018-09-21T09:30:29.963Z,1003.85
2018-09-21T09:31:30.304Z,1003.77
2018-09-21T09:32:30.094Z,1003.73
2018-09-21T09:33:30.059Z,1003.71
2018-09-21T09:34:30.165Z,1003.69
2018-09-21T09:35:30.132Z,1003.67
2018-09-21T09:36:30.220Z,1003.68
2018-09-21T09:37:30.256Z,1003.66
2018-09-21T09:38:30.539Z,1003.67
2018-09-21T09:39:30.317Z,1003.59
2018-09-21T09:40:30.357Z,1003.58
2018-09-21T09:41:30.379Z,1003.63
2018-09-21T09:42:30.418Z,1003.66
2018-09-21T09:43:30.401Z,1003.68
2018-09-21T09:44:30.488Z,1003.60
2018-09-21T09:45:30.537Z,1003.71
2018-09-21T09:46:30.499Z,1003.70
2018-09-21T09:48:30.635Z,1003.74
2018-09-21T09:49:30.651Z,1003.66
2018-09-21T09:50:30.691Z,1003.59
2018-09-21T09:51:30.963Z,1003.65
2018-09-21T09:52:30.697Z,1003.70
2018-09-21T09:53:30.784Z,1003.73
2018-09-21T09:54:31.182Z,1003.76
2018-09-21T09:55:30.800Z,1003.87
2018-09-21T09:56:30.886Z,1003.89
2018-09-21T09:57:30.876Z,1003.91
2018-09-21T09:58:30.898Z,1003.88
2018-09-21T09:59:30.991Z,1003.94
2018-09-21T10:00:31.033Z,1003.90
2018-09-21T10:02:31.040Z,1003.80
2018-09-21T10:03:31.908Z,1003.85
2018-09-21T10:04:31.152Z,1003.89
2018-09-21T10:05:31.189Z,1003.88
2018-09-21T10:06:31.177Z,1003.91
2018-09-21T10:07:31.202Z,1003.90
2018-09-21T10:08:31.287Z,1003.86
2018-09-21T10:09:31.319Z,1003.84
2018-09-21T10:10:31.619Z,1003.82
2018-09-21T10:11:31.354Z,1003.73
2018-09-21T10:12:31.368Z,1003.72
2018-09-21T10:13:31.454Z,1003.74
2018-09-21T10:14:31.506Z,1003.73
2018-09-21T10:15:31.465Z,1003.81
2018-09-21T10:16:31.958Z,1003.77
2018-09-21T10:17:31.584Z,1003.79
2018-09-21T10:18:31.568Z,1003.96
2018-09-21T10:19:31.657Z,1003.85
2018-09-21T10:20:31.751Z,1003.90
2018-09-21T10:21:31.712Z,1003.89
2018-09-21T10:22:31.701Z,1003.92
2018-09-21T10:23:32.052Z,1003.90
2018-09-21T10:24:31.891Z,1003.86
2018-09-21T10:25:31.864Z,1003.78
2018-09-21T10:26:31.877Z,1003.80
2018-09-21T10:27:32.135Z,1003.79
2018-09-21T10:28:32.092Z,1003.90
2018-09-21T10:29:31.956Z,1003.98
2018-09-21T10:30:32.260Z,1003.99
2018-09-21T10:31:31.994Z,1004.03
2018-09-21T10:32:32.080Z,1004.01
2018-09-21T10:33:32.189Z,1004.04
2018-09-21T10:34:32.177Z,1004.01
2018-09-21T10:35:32.350Z,1004.00
2018-09-21T10:36:32.215Z,1004.03
2018-09-21T10:37:32.206Z,1004.05
2018-09-21T10:38:32.235Z,1004.07
2018-09-21T10:39:32.312Z,1004.08
2018-09-21T10:40:32.518Z,1004.10
2018-09-21T10:41:32.414Z,1004.07
2018-09-21T10:42:32.440Z,1004.00
2018-09-21T10:43:32.763Z,1004.05
2018-09-21T10:44:32.506Z,1004.04
2018-09-21T10:45:32.459Z,1004.07
2018-09-21T10:46:32.545Z,1004.03
2018-09-21T10:48:32.557Z,1003.99
2018-09-21T10:49:32.594Z,1004.01
2018-09-21T10:50:32.686Z,1003.99
2018-09-21T10:51:32.705Z,1003.98
2018-09-21T10:52:32.815Z,1003.90
2018-09-21T10:53:32.769Z,1003.94
2018-09-21T10:54:32.750Z,1003.89
2018-09-21T10:55:33.103Z,1003.93
2018-09-21T10:56:32.914Z,1004.00
2018-09-21T10:57:32.949Z,1004.02
2018-09-21T10:58:32.923Z,1004.01
2018-09-21T10:59:32.968Z,1004.06
2018-09-21T11:00:33.102Z,1004.03
2018-09-21T11:01:33.359Z,1004.03
2018-09-21T11:03:33.113Z,1004.10
2018-09-21T11:04:33.142Z,1004.06
2018-09-21T11:05:33.172Z,1004.09
2018-09-21T11:06:33.155Z,1004.12
2018-09-21T11:07:33.233Z,1004.14
2018-09-21T11:08:33.582Z,1004.16
2018-09-21T11:09:33.306Z,1004.17
2018-09-21T11:10:33.339Z,1004.17
2018-09-21T11:11:33.379Z,1004.15
2018-09-21T11:12:33.398Z,1004.18
2018-09-21T11:13:33.433Z,1004.23
2018-09-21T11:14:33.409Z,1004.25
2018-09-21T11:15:33.795Z,1004.23
2018-09-21T11:16:33.537Z,1004.30
2018-09-21T11:17:33.513Z,1004.29
2018-09-21T11:18:33.590Z,1004.27
2018-09-21T11:19:33.595Z,1004.24
2018-09-21T11:21:33.711Z,1004.19
2018-09-21T11:22:33.975Z,1004.12
2018-09-21T11:23:33.768Z,1004.15
2018-09-21T11:24:33.806Z,1004.10
2018-09-21T11:25:33.824Z,1004.18
2018-09-21T11:26:33.869Z,1004.19
2018-09-21T11:28:33.926Z,1004.21
2018-09-21T11:29:34.287Z,1004.13
2018-09-21T11:30:33.988Z,1004.13
2018-09-21T11:31:34.023Z,1004.07
2018-09-21T11:32:34.085Z,1004.30
2018-09-21T11:33:34.152Z,1004.03
2018-09-21T11:34:34.140Z,1004.07
2018-09-21T11:35:34.153Z,1004.09
2018-09-21T11:36:34.190Z,1004.05
2018-09-21T11:37:34.219Z,1004.07
2018-09-21T11:38:34.195Z,1004.12
2018-09-21T11:39:34.239Z,1004.11
2018-09-21T11:40:34.339Z,1004.10
2018-09-21T11:41:34.499Z,1004.19
2018-09-21T11:42:34.669Z,1004.17
2018-09-21T11:43:34.413Z,1004.21
2018-09-21T11:44:34.447Z,1004.29
2018-09-21T11:45:34.581Z,1004.23
2018-09-21T11:46:34.584Z,1004.21
2018-09-21T11:47:34.686Z,1004.22
2018-09-21T11:48:34.589Z,1004.24
2018-09-21T11:49:34.550Z,1004.24
2018-09-21T11:50:34.586Z,1004.28
2018-09-21T11:51:34.665Z,1004.30
2018-09-21T11:52:34.701Z,1004.26
2018-09-21T11:53:34.732Z,1004.21
2018-09-21T11:54:34.767Z,1004.27
2018-09-21T11:55:34.823Z,1004.38
2018-09-21T11:56:34.775Z,1004.34
2018-09-21T11:57:34.870Z,1004.39
2018-09-21T11:58:34.889Z,1004.44
2018-09-21T11:59:34.932Z,1004.43
2018-09-21T12:00:34.976Z,1004.49
2018-09-21T12:01:35.234Z,1004.57
2018-09-21T12:02:34.988Z,1004.58
2018-09-21T12:03:35.421Z,1004.62
2018-09-21T12:04:35.085Z,1004.55
2018-09-21T12:05:35.074Z,1004.59
2018-09-21T12:06:35.517Z,1004.66
2018-09-21T12:07:35.436Z,1004.69
2018-09-21T12:08:35.217Z,1004.68
2018-09-21T12:09:35.244Z,1004.72
2018-09-21T12:10:35.285Z,1004.60
2018-09-21T12:11:35.280Z,1004.72
2018-09-21T12:12:35.345Z,1004.76
2018-09-21T12:13:35.383Z,1004.74
2018-09-21T12:14:35.730Z,1004.69
2018-09-21T12:15:35.447Z,1004.73
2018-09-21T12:16:35.499Z,1004.77
2018-09-21T12:17:35.471Z,1004.82
2018-09-21T12:19:35.594Z,1004.80
2018-09-21T12:21:35.651Z,1004.81
2018-09-21T12:22:36.005Z,1004.82
2018-09-21T12:23:36.057Z,1004.81
2018-09-21T12:24:35.774Z,1004.79
2018-09-21T12:25:35.798Z,1004.88
2018-09-21T12:26:35.789Z,1004.90
2018-09-21T12:27:35.865Z,1004.92
2018-09-21T12:28:36.182Z,1004.91
2018-09-21T12:29:35.899Z,1004.96
2018-09-21T12:30:35.965Z,1005.00
2018-09-21T12:31:35.989Z,1005.06
2018-09-21T12:32:36.080Z,1005.06
2018-09-21T12:33:36.052Z,1005.08
2018-09-21T12:34:36.015Z,1005.11
2018-09-21T12:35:36.357Z,1005.08